createdAt,value
2019-03-17T00:02:50.039Z,2.47
2019-03-17T00:05:55.771Z,2.42
2019-03-17T00:09:00.124Z,2.50
2019-03-17T00:12:04.168Z,2.75
2019-03-17T00:15:08.809Z,2.45
2019-03-17T00:18:12.073Z,2.52
2019-03-17T00:21:15.226Z,2.37
2019-03-17T00:24:18.423Z,2.45
2019-03-17T00:27:21.612Z,2.50
2019-03-17T00:30:24.812Z,2.70
2019-03-17T00:33:28.040Z,2.70
2019-03-17T00:36:31.309Z,2.58
2019-03-17T00:39:34.964Z,2.58
2019-03-17T00:42:38.300Z,2.70
2019-03-17T00:45:41.537Z,3.00
2019-03-17T00:48:44.629Z,3.05
2019-03-17T00:51:47.689Z,2.77
2019-03-17T00:54:50.928Z,2.60
2019-03-17T00:57:54.082Z,2.08
2019-03-17T01:00:57.312Z,2.58
2019-03-17T01:04:00.616Z,2.35
2019-03-17T01:07:03.813Z,2.42
2019-03-17T01:10:06.994Z,2.65
2019-03-17T01:13:10.157Z,2.50
2019-03-17T01:16:13.500Z,2.77
2019-03-17T01:19:16.680Z,2.02
2019-03-17T01:22:19.843Z,2.42
2019-03-17T01:25:23.084Z,2.30
2019-03-17T01:28:26.237Z,2.45
2019-03-17T01:31:29.328Z,2.60
2019-03-17T01:34:32.460Z,2.30
2019-03-17T01:37:35.672Z,1.85
2019-03-17T01:40:38.740Z,2.25
2019-03-17T01:43:41.804Z,2.42
2019-03-17T01:46:44.893Z,2.10
2019-03-17T01:49:48.020Z,2.40
2019-03-17T01:52:51.077Z,2.65
2019-03-17T02:00:38.260Z,2.33
2019-03-17T02:03:41.529Z,2.45
2019-03-17T02:06:44.759Z,2.47
2019-03-17T02:09:47.847Z,2.40
2019-03-17T02:12:51.012Z,2.40
2019-03-17T02:20:17.512Z,2.60
2019-03-17T02:23:20.672Z,2.45
2019-03-17T02:26:23.766Z,2.42
2019-03-17T02:29:26.955Z,2.60
2019-03-17T02:32:30.125Z,2.52
2019-03-17T02:35:39.531Z,2.52
2019-03-17T02:38:40.303Z,2.20
2019-03-17T02:41:43.399Z,2.42
2019-03-17T02:44:46.488Z,2.45
2019-03-17T02:47:49.582Z,2.50
2019-03-17T02:50:52.776Z,2.22
2019-03-17T02:53:55.968Z,2.58
2019-03-17T02:56:59.092Z,2.60
2019-03-17T03:00:02.253Z,2.50
2019-03-17T03:03:05.462Z,2.08
2019-03-17T03:06:08.651Z,2.30
2019-03-17T03:09:11.841Z,2.80
2019-03-17T03:12:14.932Z,2.50
2019-03-17T03:15:18.509Z,2.65
2019-03-17T03:18:21.782Z,2.58
2019-03-17T03:21:24.934Z,2.33
2019-03-17T03:24:28.129Z,2.47
2019-03-17T03:27:31.320Z,2.30
2019-03-17T03:30:34.687Z,2.40
2019-03-17T03:33:37.913Z,2.40
2019-03-17T03:36:41.079Z,2.20
2019-03-17T03:39:44.297Z,2.50
2019-03-17T03:42:47.441Z,2.75
2019-03-17T03:45:50.628Z,2.37
2019-03-17T03:48:53.716Z,2.45
2019-03-17T03:51:56.919Z,2.33
2019-03-17T03:54:59.973Z,2.00
2019-03-17T03:58:03.416Z,2.02
2019-03-17T04:01:07.743Z,2.43
2019-03-17T04:04:10.889Z,2.02
2019-03-17T04:07:15.247Z,1.87
2019-03-17T04:10:18.404Z,1.92
2019-03-17T04:13:21.756Z,2.17
2019-03-17T04:16:24.832Z,2.12
2019-03-17T04:19:27.889Z,2.12
2019-03-17T04:22:31.120Z,2.27
2019-03-17T04:25:34.273Z,1.72
2019-03-17T04:28:37.379Z,1.72
2019-03-17T04:31:40.501Z,1.80
2019-03-17T04:34:43.556Z,1.87
2019-03-17T04:37:46.579Z,1.90
2019-03-17T04:40:50.767Z,1.77
2019-03-17T04:43:54.065Z,1.87
2019-03-17T04:46:57.188Z,1.62
2019-03-17T04:50:00.354Z,1.85
2019-03-17T04:53:03.481Z,1.80
2019-03-17T04:56:06.535Z,1.50
2019-03-17T04:59:09.633Z,1.70
2019-03-17T05:02:13.778Z,1.90
2019-03-17T05:05:16.971Z,1.92
2019-03-17T05:08:20.035Z,1.80
2019-03-17T05:11:23.228Z,1.67
2019-03-17T05:14:26.333Z,1.90
2019-03-17T05:17:29.445Z,1.82
2019-03-17T05:20:32.503Z,1.90
2019-03-17T05:23:35.596Z,1.60
2019-03-17T05:26:38.696Z,1.80
2019-03-17T05:29:41.887Z,1.90
2019-03-17T05:32:45.025Z,1.85
2019-03-17T05:35:48.071Z,1.85
2019-03-17T05:38:51.319Z,1.80
2019-03-17T05:41:54.564Z,1.92
2019-03-17T05:44:57.660Z,2.02
2019-03-17T05:48:00.791Z,2.10
2019-03-17T05:51:03.844Z,1.80
2019-03-17T05:54:18.698Z,1.80
2019-03-17T05:57:31.779Z,1.82
2019-03-17T06:00:35.041Z,1.90
2019-03-17T06:03:38.270Z,2.10
2019-03-17T06:06:41.523Z,1.92
2019-03-17T06:09:44.928Z,2.72
2019-03-17T06:12:48.153Z,1.85
2019-03-17T06:15:51.213Z,1.65
2019-03-17T06:18:54.312Z,1.60
2019-03-17T06:22:00.325Z,1.67
2019-03-17T06:25:02.753Z,1.70
2019-03-17T06:28:05.873Z,1.57
2019-03-17T06:31:10.196Z,1.70
2019-03-17T06:34:13.252Z,1.40
2019-03-17T06:37:16.455Z,1.62
2019-03-17T06:40:19.549Z,1.55
2019-03-17T06:43:22.637Z,1.50
2019-03-17T06:46:25.828Z,1.62
2019-03-17T06:49:29.023Z,1.57
2019-03-17T06:52:33.450Z,1.92
2019-03-17T06:55:36.641Z,1.40
2019-03-17T06:58:40.867Z,1.60
2019-03-17T07:01:44.059Z,1.47
2019-03-17T07:04:47.664Z,1.40
2019-03-17T07:07:50.748Z,1.42
2019-03-17T07:10:54.000Z,1.35
2019-03-17T07:13:57.148Z,1.40
2019-03-17T07:17:00.339Z,1.45
2019-03-17T07:20:04.340Z,1.50
2019-03-17T07:23:07.548Z,1.32
2019-03-17T07:26:10.646Z,1.40
2019-03-17T07:29:13.772Z,1.32
2019-03-17T07:32:16.925Z,1.37
2019-03-17T07:35:20.063Z,1.40
2019-03-17T07:38:24.384Z,1.62
2019-03-17T07:41:27.849Z,1.30
2019-03-17T07:44:31.179Z,1.47
2019-03-17T07:47:35.713Z,1.40
2019-03-17T07:50:39.108Z,1.98
2019-03-17T07:53:42.315Z,1.60
2019-03-17T07:56:45.459Z,1.87
2019-03-17T07:59:48.684Z,1.60
2019-03-17T08:02:51.748Z,1.35
2019-03-17T08:05:54.876Z,1.30
2019-03-17T08:08:57.968Z,1.37
2019-03-17T08:12:01.128Z,1.27
2019-03-17T08:15:04.667Z,1.47
2019-03-17T08:18:07.828Z,1.10
2019-03-17T08:21:11.028Z,1.40
2019-03-17T08:24:14.288Z,1.57
2019-03-17T08:27:17.512Z,1.50
2019-03-17T08:30:21.712Z,1.35
2019-03-17T08:33:24.818Z,1.82
2019-03-17T08:36:28.097Z,1.55
2019-03-17T08:39:31.399Z,1.35
2019-03-17T08:42:34.556Z,1.60
2019-03-17T08:45:37.788Z,1.98
2019-03-17T08:48:40.846Z,1.67
2019-03-17T08:51:43.944Z,1.52
2019-03-17T08:54:47.172Z,1.45
2019-03-17T08:57:50.332Z,1.37
2019-03-17T09:00:53.463Z,1.12
2019-03-17T09:03:56.616Z,1.60
2019-03-17T09:06:59.816Z,1.35
2019-03-17T09:10:03.552Z,1.65
2019-03-17T09:13:06.716Z,1.25
2019-03-17T09:16:09.816Z,1.45
2019-03-17T09:19:13.008Z,1.50
2019-03-17T09:22:16.199Z,1.70
2019-03-17T09:25:19.428Z,1.50
2019-03-17T09:28:22.592Z,1.32
2019-03-17T09:31:25.789Z,1.45
2019-03-17T09:34:30.411Z,1.37
2019-03-17T09:37:33.711Z,1.12
2019-03-17T09:40:37.043Z,1.30
2019-03-17T09:43:40.304Z,1.45
2019-03-17T09:46:43.400Z,1.40
2019-03-17T09:49:46.699Z,1.42
2019-03-17T09:52:50.000Z,1.10
2019-03-17T09:55:53.235Z,1.50
2019-03-17T09:58:56.389Z,1.15
2019-03-17T10:01:59.581Z,1.40
2019-03-17T10:05:02.929Z,1.50
2019-03-17T10:08:06.072Z,1.72
2019-03-17T10:11:10.704Z,1.25
2019-03-17T10:14:14.204Z,1.50
2019-03-17T10:17:17.295Z,1.45
2019-03-17T10:20:20.525Z,1.40
2019-03-17T10:23:23.590Z,1.20
2019-03-17T10:26:26.675Z,1.37
2019-03-17T10:29:29.863Z,1.35
2019-03-17T10:32:32.959Z,1.35
2019-03-17T10:35:36.092Z,1.52
2019-03-17T10:38:39.351Z,1.42
2019-03-17T10:41:43.472Z,1.47
2019-03-17T10:44:46.667Z,1.30
2019-03-17T10:47:49.788Z,1.17
2019-03-17T10:51:12.013Z,1.52
2019-03-17T10:54:15.197Z,1.35
2019-03-17T10:57:18.294Z,1.35
2019-03-17T11:00:21.481Z,1.20
2019-03-17T11:03:24.576Z,1.05
2019-03-17T11:06:27.773Z,1.50
2019-03-17T11:09:30.865Z,1.50
2019-03-17T11:12:34.059Z,1.05
2019-03-17T11:15:37.152Z,1.40
2019-03-17T11:18:40.249Z,1.47
2019-03-17T11:21:43.337Z,1.60
2019-03-17T11:24:46.632Z,1.47
2019-03-17T11:27:49.934Z,1.82
2019-03-17T11:30:57.715Z,1.40
2019-03-17T11:34:00.863Z,1.32
2019-03-17T11:37:05.084Z,1.47
2019-03-17T11:40:09.687Z,1.40
2019-03-17T11:43:12.818Z,1.70
2019-03-17T11:46:16.068Z,2.55
2019-03-17T11:49:19.256Z,1.40
2019-03-17T11:52:22.600Z,1.60
2019-03-17T11:55:25.652Z,1.30
2019-03-17T11:58:29.909Z,1.25
2019-03-17T12:01:33.009Z,1.52
2019-03-17T12:04:36.484Z,1.32
2019-03-17T12:07:39.719Z,1.45
2019-03-17T12:10:42.656Z,1.72
2019-03-17T12:13:45.995Z,1.35
2019-03-17T12:16:49.207Z,1.72
2019-03-17T12:19:52.236Z,2.22
2019-03-17T12:22:55.496Z,1.72
2019-03-17T12:25:58.731Z,1.92
2019-03-17T12:29:01.953Z,1.98
2019-03-17T12:32:05.152Z,1.52
2019-03-17T12:35:08.216Z,1.77
2019-03-17T12:38:11.440Z,1.60
2019-03-17T12:41:14.492Z,1.50
2019-03-17T12:44:17.592Z,1.47
2019-03-17T12:47:20.722Z,1.40
2019-03-17T12:50:24.088Z,1.90
2019-03-17T12:53:27.312Z,0.70
2019-03-17T12:56:30.373Z,0.50
2019-03-17T12:59:34.496Z,1.00
2019-03-17T13:02:37.720Z,0.80
2019-03-17T13:05:40.776Z,0.60
2019-03-17T13:08:43.922Z,0.60
2019-03-17T13:11:47.170Z,0.60
2019-03-17T13:14:50.303Z,0.50
2019-03-17T13:17:53.457Z,0.60
2019-03-17T13:20:56.584Z,0.42
2019-03-17T13:23:59.639Z,0.57
2019-03-17T13:27:02.735Z,0.50
2019-03-17T13:30:07.040Z,0.50
2019-03-17T13:33:10.189Z,0.43
2019-03-17T13:36:13.251Z,0.50
2019-03-17T13:39:16.536Z,0.80
2019-03-17T13:42:19.734Z,0.50
2019-03-17T13:45:22.857Z,0.50
2019-03-17T13:48:26.056Z,0.50
2019-03-17T13:51:29.117Z,0.50
2019-03-17T13:54:32.215Z,0.60
2019-03-17T13:57:35.503Z,0.50
2019-03-17T14:00:38.597Z,0.50
2019-03-17T14:03:41.736Z,0.33
2019-03-17T14:06:44.939Z,0.65
2019-03-17T14:09:49.003Z,0.53
2019-03-17T14:12:52.251Z,0.72
2019-03-17T14:15:56.464Z,0.60
2019-03-17T14:19:00.534Z,0.70
2019-03-17T14:22:03.632Z,0.70
2019-03-17T14:25:09.718Z,0.90
2019-03-17T14:28:12.780Z,0.70
2019-03-17T14:31:15.877Z,1.10
2019-03-17T14:34:18.967Z,0.78
2019-03-17T14:37:22.059Z,0.82
2019-03-17T14:40:25.157Z,0.80
2019-03-17T14:43:28.348Z,0.80
2019-03-17T14:46:31.445Z,0.80
2019-03-17T14:49:34.527Z,0.80
2019-03-17T14:52:38.649Z,1.00
2019-03-17T14:55:41.839Z,0.85
2019-03-17T14:58:45.036Z,1.00
2019-03-17T15:01:48.231Z,0.78
2019-03-17T15:04:52.461Z,1.12
2019-03-17T15:07:55.544Z,0.90
2019-03-17T15:11:05.691Z,0.98
2019-03-17T15:14:05.556Z,1.07
2019-03-17T15:17:08.812Z,1.00
2019-03-17T15:20:13.905Z,0.85
2019-03-17T15:23:17.147Z,1.17
2019-03-17T15:26:20.380Z,0.95
2019-03-17T15:29:23.576Z,1.00
2019-03-17T15:32:26.639Z,0.90
2019-03-17T15:35:29.860Z,0.95
2019-03-17T15:38:33.021Z,0.90
2019-03-17T15:41:36.267Z,1.00
2019-03-17T15:44:39.528Z,1.10
2019-03-17T15:47:42.760Z,1.10
2019-03-17T15:50:46.044Z,1.00
2019-03-17T15:53:49.104Z,1.10
2019-03-17T15:56:52.429Z,1.10
2019-03-17T15:59:55.630Z,1.00
2019-03-17T16:02:58.787Z,0.90
2019-03-17T16:06:02.025Z,1.10
2019-03-17T16:09:07.515Z,1.20
2019-03-17T16:12:10.732Z,1.20
2019-03-17T16:15:14.265Z,1.22
2019-03-17T16:18:17.323Z,1.30
2019-03-17T16:21:20.456Z,1.30
2019-03-17T16:24:23.611Z,1.10
2019-03-17T16:27:26.812Z,1.20
2019-03-17T16:30:30.139Z,1.07
2019-03-17T16:33:33.452Z,1.32
2019-03-17T16:36:36.631Z,0.98
2019-03-17T16:39:39.796Z,1.32
2019-03-17T16:42:42.892Z,1.20
2019-03-17T16:45:46.117Z,1.12
2019-03-17T16:48:49.283Z,1.22
2019-03-17T16:51:52.471Z,1.40
2019-03-17T16:54:55.588Z,1.37
2019-03-17T16:57:58.660Z,1.42
2019-03-17T17:01:01.904Z,1.50
2019-03-17T17:04:05.148Z,1.10
2019-03-17T17:07:08.452Z,1.05
2019-03-17T17:10:12.856Z,1.30
2019-03-17T17:13:16.097Z,1.20
2019-03-17T17:16:19.400Z,1.40
2019-03-17T17:19:23.482Z,1.10
2019-03-17T17:22:26.575Z,1.52
2019-03-17T17:25:29.675Z,1.70
2019-03-17T17:28:32.974Z,2.42
2019-03-17T17:31:36.300Z,1.30
2019-03-17T17:34:39.460Z,1.22
2019-03-17T17:37:42.759Z,1.30
2019-03-17T17:40:45.843Z,1.27
2019-03-17T17:43:48.940Z,1.10
2019-03-17T17:46:53.060Z,1.17
2019-03-17T17:49:56.251Z,1.12
2019-03-17T17:52:59.350Z,1.30
2019-03-17T17:56:02.589Z,1.25
2019-03-17T17:59:05.764Z,1.20
2019-03-17T18:02:09.027Z,0.90
2019-03-17T18:05:12.335Z,0.90
2019-03-17T18:08:15.523Z,0.90
2019-03-17T18:11:18.622Z,0.80
2019-03-17T18:14:21.716Z,0.60
2019-03-17T18:17:24.909Z,0.78
2019-03-17T18:20:28.000Z,0.60
2019-03-17T18:23:31.235Z,0.70
2019-03-17T18:26:34.315Z,0.60
2019-03-17T18:29:37.380Z,0.65
2019-03-17T18:32:40.508Z,0.80
2019-03-17T18:35:43.566Z,0.85
2019-03-17T18:38:46.798Z,0.50
2019-03-17T18:41:49.888Z,0.50
2019-03-17T18:44:53.972Z,0.60
2019-03-17T18:47:57.804Z,0.60
2019-03-17T18:51:01.284Z,0.60
2019-03-17T18:54:05.611Z,0.70
2019-03-17T18:57:09.348Z,0.80
2019-03-17T19:00:14.345Z,0.80
2019-03-17T19:03:18.604Z,0.70
2019-03-17T19:06:21.766Z,0.60
2019-03-17T19:09:24.858Z,0.70
2019-03-17T19:12:28.191Z,0.53
2019-03-17T19:15:32.331Z,0.70
2019-03-17T19:18:35.464Z,0.60
2019-03-17T19:21:38.696Z,0.63
2019-03-17T19:24:41.855Z,0.67
2019-03-17T19:27:45.187Z,0.70
2019-03-17T19:30:48.451Z,0.50
2019-03-17T19:33:51.685Z,0.70
2019-03-17T19:36:55.039Z,0.75
2019-03-17T19:40:00.914Z,0.80
2019-03-17T19:43:03.422Z,0.80
2019-03-17T19:46:06.475Z,0.60
2019-03-17T19:49:09.712Z,0.80
2019-03-17T19:52:13.835Z,0.62
2019-03-17T19:55:17.087Z,0.70
2019-03-17T19:58:20.312Z,0.60
2019-03-17T20:01:23.375Z,0.50
2019-03-17T20:04:31.460Z,0.70
2019-03-17T20:07:31.400Z,0.80
2019-03-17T20:10:34.496Z,0.85
2019-03-17T20:13:37.829Z,0.70
2019-03-17T20:16:40.883Z,0.90
2019-03-17T20:19:44.079Z,0.82
2019-03-17T20:22:47.203Z,0.90
2019-03-17T20:25:50.468Z,0.73
2019-03-17T20:28:53.700Z,0.70
2019-03-17T20:31:56.908Z,0.63
2019-03-17T20:35:00.056Z,0.93
2019-03-17T20:38:03.186Z,1.00
2019-03-17T20:41:06.444Z,0.87
2019-03-17T20:44:09.745Z,0.80
2019-03-17T20:47:12.941Z,0.90
2019-03-17T20:50:16.058Z,0.90
2019-03-17T20:53:19.276Z,0.63
2019-03-17T20:56:22.566Z,1.00
2019-03-17T20:59:25.734Z,1.00
2019-03-17T21:02:28.823Z,0.90
2019-03-17T21:05:31.924Z,1.10
2019-03-17T21:08:35.352Z,0.60
2019-03-17T21:11:38.512Z,0.70
2019-03-17T21:14:41.608Z,0.97
2019-03-17T21:17:44.807Z,1.07
2019-03-17T21:20:47.997Z,1.13
2019-03-17T21:23:51.224Z,0.80
2019-03-17T21:26:54.592Z,0.80
2019-03-17T21:29:59.018Z,0.87
2019-03-17T21:33:02.207Z,0.90
2019-03-17T21:36:05.560Z,0.90
2019-03-17T21:39:08.709Z,1.10
2019-03-17T21:42:11.925Z,0.83
2019-03-17T21:45:15.196Z,1.10
2019-03-17T21:48:18.283Z,0.90
2019-03-17T21:51:21.483Z,0.90
2019-03-17T21:54:25.741Z,1.23
2019-03-17T21:57:28.793Z,0.90
2019-03-17T22:00:31.924Z,0.90
2019-03-17T22:03:36.321Z,1.07
2019-03-17T22:06:39.749Z,1.00
2019-03-17T22:09:43.158Z,1.00
2019-03-17T22:12:46.423Z,1.27
2019-03-17T22:15:49.887Z,1.00
2019-03-17T22:18:53.309Z,0.90
2019-03-17T22:21:56.440Z,1.10
2019-03-17T22:24:59.631Z,0.80
2019-03-17T22:28:08.202Z,1.17
2019-03-17T22:31:07.868Z,1.20
2019-03-17T22:34:10.933Z,1.07
2019-03-17T22:37:14.019Z,0.93
2019-03-17T22:40:17.246Z,0.97
2019-03-17T22:43:35.764Z,1.00
2019-03-17T22:46:38.891Z,0.90
2019-03-17T22:49:42.100Z,0.80
2019-03-17T22:52:45.564Z,1.10
2019-03-17T22:55:48.692Z,1.03
2019-03-17T22:58:51.840Z,1.17
2019-03-17T23:01:55.076Z,1.20
2019-03-17T23:04:58.168Z,1.17
2019-03-17T23:08:01.434Z,1.10
2019-03-17T23:11:04.664Z,1.07
2019-03-17T23:14:07.716Z,1.33
2019-03-17T23:17:10.911Z,1.10
2019-03-17T23:20:16.120Z,1.10
2019-03-17T23:23:19.252Z,1.23
2019-03-17T23:26:22.683Z,1.40
2019-03-17T23:29:25.839Z,1.33
2019-03-17T23:32:29.040Z,1.37
2019-03-17T23:35:32.276Z,1.07
2019-03-17T23:38:35.436Z,1.10
2019-03-17T23:41:38.559Z,1.50
2019-03-17T23:44:48.750Z,1.40
2019-03-17T23:47:46.563Z,1.10
2019-03-17T23:50:50.235Z,1.17
2019-03-17T23:53:53.458Z,1.03
2019-03-17T23:56:56.687Z,1.40
